sensor_id;sensor_type;location;lat;lon;timestamp;temperature;humidity
44855;DHT22;30591;48.228;16.398;2023-03-14T00:02:18;8.20;99.90
44855;DHT22;30591;48.228;16.398;2023-03-14T00:04:46;8.20;99.90
44855;DHT22;30591;48.228;16.398;2023-03-14T00:07:14;8.30;99.90
44855;DHT22;30591;48.228;16.398;2023-03-14T00:09:41;8.30;99.90
44855;DHT22;30591;48.228;16.398;2023-03-14T00:12:09;8.30;99.90
44855;DHT22;30591;48.228;16.398;2023-03-14T00:14:36;8.20;99.90
44855;DHT22;30591;48.228;16.398;2023-03-14T00:17:03;8.30;99.90
44855;DHT22;30591;48.228;16.398;2023-03-14T00:19:30;8.30;99.90
44855;DHT22;30591;48.228;16.398;2023-03-14T00:21:57;8.20;99.90
44855;DHT22;30591;48.228;16.398;2023-03-14T00:24:25;8.10;99.90
44855;DHT22;30591;48.228;16.398;2023-03-14T00:26:52;8.10;99.90
44855;DHT22;30591;48.228;16.398;2023-03-14T00:29:19;8.10;99.90
44855;DHT22;30591;48.228;16.398;2023-03-14T00:31:46;8.00;99.90
44855;DHT22;30591;48.228;16.398;2023-03-14T00:34:14;8.00;99.90
44855;DHT22;30591;48.228;16.398;2023-03-14T00:36:41;8.00;99.90
44855;DHT22;30591;48.228;16.398;2023-03-14T00:39:08;8.00;99.90
44855;DHT22;30591;48.228;16.398;2023-03-14T00:41:35;8.10;99.90
44855;DHT22;30591;48.228;16.398;2023-03-14T00:44:03;8.00;99.90
44855;DHT22;30591;48.228;16.398;2023-03-14T00:46:30;8.10;99.90
44855;DHT22;30591;48.228;16.398;2023-03-14T00:48:58;8.10;99.90
44855;DHT22;30591;48.228;16.398;2023-03-14T00:51:25;8.00;99.90
44855;DHT22;30591;48.228;16.398;2023-03-14T00:53:55;8.00;99.90
44855;DHT22;30591;48.228;16.398;2023-03-14T00:56:22;8.10;99.90
44855;DHT22;30591;48.228;16.398;2023-03-14T00:58:54;8.00;99.90
44855;DHT22;30591;48.228;16.398;2023-03-14T01:01:22;7.90;99.90
44855;DHT22;30591;48.228;16.398;2023-03-14T01:03:54;7.80;99.90
44855;DHT22;30591;48.228;16.398;2023-03-14T01:06:25;7.80;99.90
44855;DHT22;30591;48.228;16.398;2023-03-14T01:08:53;7.70;99.90
44855;DHT22;30591;48.228;16.398;2023-03-14T01:11:32;7.70;99.90
44855;DHT22;30591;48.228;16.398;2023-03-14T01:14:00;7.70;99.90
44855;DHT22;30591;48.228;16.398;2023-03-14T01:16:32;7.70;99.90
44855;DHT22;30591;48.228;16.398;2023-03-14T01:19:03;7.60;99.90
44855;DHT22;30591;48.228;16.398;2023-03-14T01:21:33;7.60;99.90
44855;DHT22;30591;48.228;16.398;2023-03-14T01:24:02;7.60;99.90
44855;DHT22;30591;48.228;16.398;2023-03-14T01:26:33;7.50;99.90
44855;DHT22;30591;48.228;16.398;2023-03-14T01:29:01;7.50;99.90
44855;DHT22;30591;48.228;16.398;2023-03-14T01:31:31;7.70;99.90
44855;DHT22;30591;48.228;16.398;2023-03-14T01:33:59;7.60;99.90
44855;DHT22;30591;48.228;16.398;2023-03-14T01:36:26;7.50;99.90
44855;DHT22;30591;48.228;16.398;2023-03-14T01:38:58;7.50;99.90
44855;DHT22;30591;48.228;16.398;2023-03-14T01:41:26;7.50;99.90
44855;DHT22;30591;48.228;16.398;2023-03-14T01:43:56;7.40;99.90
44855;DHT22;30591;48.228;16.398;2023-03-14T01:51:46;7.20;99.90
44855;DHT22;30591;48.228;16.398;2023-03-14T01:54:32;7.20;99.90
44855;DHT22;30591;48.228;16.398;2023-03-14T01:57:14;7.20;99.90
44855;DHT22;30591;48.228;16.398;2023-03-14T01:59:50;7.20;99.90
44855;DHT22;30591;48.228;16.398;2023-03-14T02:02:19;7.10;99.90
44855;DHT22;30591;48.228;16.398;2023-03-14T02:04:48;7.00;99.90
44855;DHT22;30591;48.228;16.398;2023-03-14T02:10:04;7.00;99.90
44855;DHT22;30591;48.228;16.398;2023-03-14T02:12:34;7.00;99.90
44855;DHT22;30591;48.228;16.398;2023-03-14T02:15:26;7.10;99.90
44855;DHT22;30591;48.228;16.398;2023-03-14T02:18:02;7.00;99.90
44855;DHT22;30591;48.228;16.398;2023-03-14T02:21:23;7.00;99.90
44855;DHT22;30591;48.228;16.398;2023-03-14T02:27:13;6.80;99.90
44855;DHT22;30591;48.228;16.398;2023-03-14T02:32:24;6.70;99.90
44855;DHT22;30591;48.228;16.398;2023-03-14T02:34:58;6.60;99.90
44855;DHT22;30591;48.228;16.398;2023-03-14T02:37:53;6.60;99.90
44855;DHT22;30591;48.228;16.398;2023-03-14T02:40:25;6.50;99.90
44855;DHT22;30591;48.228;16.398;2023-03-14T02:42:53;6.50;99.90
44855;DHT22;30591;48.228;16.398;2023-03-14T02:48:02;6.60;99.90
44855;DHT22;30591;48.228;16.398;2023-03-14T02:50:34;6.60;99.90
44855;DHT22;30591;48.228;16.398;2023-03-14T02:53:01;6.50;99.90
44855;DHT22;30591;48.228;16.398;2023-03-14T02:55:29;6.40;99.90
44855;DHT22;30591;48.228;16.398;2023-03-14T02:58:03;6.30;99.90
44855;DHT22;30591;48.228;16.398;2023-03-14T03:00:30;6.30;99.90
44855;DHT22;30591;48.228;16.398;2023-03-14T03:02:58;6.40;99.90
44855;DHT22;30591;48.228;16.398;2023-03-14T03:05:25;6.20;99.90
44855;DHT22;30591;48.228;16.398;2023-03-14T03:07:52;6.20;99.90
44855;DHT22;30591;48.228;16.398;2023-03-14T03:10:20;6.20;99.90
44855;DHT22;30591;48.228;16.398;2023-03-14T03:12:47;6.20;99.90
44855;DHT22;30591;48.228;16.398;2023-03-14T03:15:15;6.20;99.90
44855;DHT22;30591;48.228;16.398;2023-03-14T03:17:42;6.10;99.90
44855;DHT22;30591;48.228;16.398;2023-03-14T03:20:10;6.00;99.90
44855;DHT22;30591;48.228;16.398;2023-03-14T03:22:39;6.20;99.90
44855;DHT22;30591;48.228;16.398;2023-03-14T03:25:09;6.20;99.90
44855;DHT22;30591;48.228;16.398;2023-03-14T03:27:37;6.10;99.90
44855;DHT22;30591;48.228;16.398;2023-03-14T03:30:06;6.00;99.90
44855;DHT22;30591;48.228;16.398;2023-03-14T03:32:35;6.00;99.90
44855;DHT22;30591;48.228;16.398;2023-03-14T03:35:04;6.10;99.90
44855;DHT22;30591;48.228;16.398;2023-03-14T03:37:35;6.10;99.90
44855;DHT22;30591;48.228;16.398;2023-03-14T03:40:06;6.00;99.90
44855;DHT22;30591;48.228;16.398;2023-03-14T03:42:35;6.40;99.90
44855;DHT22;30591;48.228;16.398;2023-03-14T03:45:07;6.50;99.90
44855;DHT22;30591;48.228;16.398;2023-03-14T03:47:40;6.50;99.90
44855;DHT22;30591;48.228;16.398;2023-03-14T03:50:08;6.50;99.90
44855;DHT22;30591;48.228;16.398;2023-03-14T03:52:36;6.60;99.90
44855;DHT22;30591;48.228;16.398;2023-03-14T03:55:04;6.80;99.90
44855;DHT22;30591;48.228;16.398;2023-03-14T03:57:31;6.90;99.90
44855;DHT22;30591;48.228;16.398;2023-03-14T03:59:59;6.90;99.90
44855;DHT22;30591;48.228;16.398;2023-03-14T04:02:27;6.70;99.90
44855;DHT22;30591;48.228;16.398;2023-03-14T04:04:55;6.60;99.90
44855;DHT22;30591;48.228;16.398;2023-03-14T04:07:23;6.70;99.90
44855;DHT22;30591;48.228;16.398;2023-03-14T04:09:51;6.70;99.90
44855;DHT22;30591;48.228;16.398;2023-03-14T04:12:37;6.50;99.90
44855;DHT22;30591;48.228;16.398;2023-03-14T04:15:09;6.70;99.90
44855;DHT22;30591;48.228;16.398;2023-03-14T04:17:40;6.60;99.90
44855;DHT22;30591;48.228;16.398;2023-03-14T04:20:09;6.60;99.90
44855;DHT22;30591;48.228;16.398;2023-03-14T04:22:40;6.40;99.90
44855;DHT22;30591;48.228;16.398;2023-03-14T04:25:12;6.40;99.90
44855;DHT22;30591;48.228;16.398;2023-03-14T04:27:44;6.40;99.90
44855;DHT22;30591;48.228;16.398;2023-03-14T04:30:18;6.30;99.90
44855;DHT22;30591;48.228;16.398;2023-03-14T04:33:06;6.20;99.90
44855;DHT22;30591;48.228;16.398;2023-03-14T04:35:38;6.20;99.90
44855;DHT22;30591;48.228;16.398;2023-03-14T04:38:09;6.10;99.90
44855;DHT22;30591;48.228;16.398;2023-03-14T04:40:40;6.10;99.90
44855;DHT22;30591;48.228;16.398;2023-03-14T04:43:10;6.00;99.90
44855;DHT22;30591;48.228;16.398;2023-03-14T04:45:46;6.10;99.90
44855;DHT22;30591;48.228;16.398;2023-03-14T04:48:14;6.00;99.90
44855;DHT22;30591;48.228;16.398;2023-03-14T04:50:42;5.90;99.90
44855;DHT22;30591;48.228;16.398;2023-03-14T04:53:10;5.80;99.90
44855;DHT22;30591;48.228;16.398;2023-03-14T04:55:40;5.70;99.90
44855;DHT22;30591;48.228;16.398;2023-03-14T04:58:08;5.70;99.90
44855;DHT22;30591;48.228;16.398;2023-03-14T05:00:36;5.80;99.90
44855;DHT22;30591;48.228;16.398;2023-03-14T05:03:20;5.70;99.90
44855;DHT22;30591;48.228;16.398;2023-03-14T05:05:58;5.70;99.90
44855;DHT22;30591;48.228;16.398;2023-03-14T05:08:55;5.60;99.90
44855;DHT22;30591;48.228;16.398;2023-03-14T05:11:25;5.50;99.90
44855;DHT22;30591;48.228;16.398;2023-03-14T05:14:01;5.50;99.90
44855;DHT22;30591;48.228;16.398;2023-03-14T05:16:31;5.50;99.90
44855;DHT22;30591;48.228;16.398;2023-03-14T05:19:19;5.60;99.90
44855;DHT22;30591;48.228;16.398;2023-03-14T05:22:05;5.50;99.90
44855;DHT22;30591;48.228;16.398;2023-03-14T05:24:59;5.50;99.90
44855;DHT22;30591;48.228;16.398;2023-03-14T05:27:47;5.40;99.90
44855;DHT22;30591;48.228;16.398;2023-03-14T05:30:33;5.30;99.90
44855;DHT22;30591;48.228;16.398;2023-03-14T05:33:17;5.30;99.90
44855;DHT22;30591;48.228;16.398;2023-03-14T05:35:57;5.40;99.90
44855;DHT22;30591;48.228;16.398;2023-03-14T05:38:47;5.40;99.90
44855;DHT22;30591;48.228;16.398;2023-03-14T05:41:35;5.40;99.90
44855;DHT22;30591;48.228;16.398;2023-03-14T05:44:32;5.50;99.90
44855;DHT22;30591;48.228;16.398;2023-03-14T05:47:10;5.40;99.90
44855;DHT22;30591;48.228;16.398;2023-03-14T05:49:56;5.30;99.90
44855;DHT22;30591;48.228;16.398;2023-03-14T05:52:30;5.20;99.90
44855;DHT22;30591;48.228;16.398;2023-03-14T05:55:23;5.30;99.90
44855;DHT22;30591;48.228;16.398;2023-03-14T05:58:09;5.30;99.90
44855;DHT22;30591;48.228;16.398;2023-03-14T06:01:03;5.40;99.90
44855;DHT22;30591;48.228;16.398;2023-03-14T06:03:43;5.50;99.90
44855;DHT22;30591;48.228;16.398;2023-03-14T06:06:11;5.50;99.90
44855;DHT22;30591;48.228;16.398;2023-03-14T06:08:38;5.50;99.90
44855;DHT22;30591;48.228;16.398;2023-03-14T06:11:06;5.60;99.90
44855;DHT22;30591;48.228;16.398;2023-03-14T06:13:34;5.70;99.90
44855;DHT22;30591;48.228;16.398;2023-03-14T06:16:02;5.70;99.90
44855;DHT22;30591;48.228;16.398;2023-03-14T06:18:29;5.80;99.90
44855;DHT22;30591;48.228;16.398;2023-03-14T06:20:57;6.00;99.90
44855;DHT22;30591;48.228;16.398;2023-03-14T06:23:26;6.10;99.90
44855;DHT22;30591;48.228;16.398;2023-03-14T06:25:56;6.10;99.90
44855;DHT22;30591;48.228;16.398;2023-03-14T06:28:24;6.20;99.90
44855;DHT22;30591;48.228;16.398;2023-03-14T06:30:55;6.20;99.90
44855;DHT22;30591;48.228;16.398;2023-03-14T06:33:22;6.20;99.90
44855;DHT22;30591;48.228;16.398;2023-03-14T06:35:50;6.20;99.90
44855;DHT22;30591;48.228;16.398;2023-03-14T06:38:17;6.30;99.90
44855;DHT22;30591;48.228;16.398;2023-03-14T06:40:45;6.30;99.90
44855;DHT22;30591;48.228;16.398;2023-03-14T06:43:17;6.40;99.90
44855;DHT22;30591;48.228;16.398;2023-03-14T06:45:46;6.50;99.90
44855;DHT22;30591;48.228;16.398;2023-03-14T06:48:13;6.60;99.90
44855;DHT22;30591;48.228;16.398;2023-03-14T06:50:48;6.70;99.90
44855;DHT22;30591;48.228;16.398;2023-03-14T06:53:16;6.90;99.90
44855;DHT22;30591;48.228;16.398;2023-03-14T06:55:44;6.90;99.90
44855;DHT22;30591;48.228;16.398;2023-03-14T06:58:14;6.90;99.90
44855;DHT22;30591;48.228;16.398;2023-03-14T07:00:44;6.90;99.90
44855;DHT22;30591;48.228;16.398;2023-03-14T07:03:16;7.10;99.90
44855;DHT22;30591;48.228;16.398;2023-03-14T07:05:48;7.20;99.90
44855;DHT22;30591;48.228;16.398;2023-03-14T07:08:15;7.50;99.90
44855;DHT22;30591;48.228;16.398;2023-03-14T07:10:42;7.50;99.90
44855;DHT22;30591;48.228;16.398;2023-03-14T07:13:10;7.90;99.90
44855;DHT22;30591;48.228;16.398;2023-03-14T07:15:48;8.20;99.90
44855;DHT22;30591;48.228;16.398;2023-03-14T07:18:15;8.50;99.90
44855;DHT22;30591;48.228;16.398;2023-03-14T07:20:45;8.80;99.90
44855;DHT22;30591;48.228;16.398;2023-03-14T07:23:14;9.00;99.90
44855;DHT22;30591;48.228;16.398;2023-03-14T07:25:48;9.10;99.90
44855;DHT22;30591;48.228;16.398;2023-03-14T07:28:18;9.20;99.90
44855;DHT22;30591;48.228;16.398;2023-03-14T07:30:47;9.30;99.90
44855;DHT22;30591;48.228;16.398;2023-03-14T07:33:20;9.30;99.90
44855;DHT22;30591;48.228;16.398;2023-03-14T07:35:48;9.20;99.90
44855;DHT22;30591;48.228;16.398;2023-03-14T07:38:16;9.30;99.90
44855;DHT22;30591;48.228;16.398;2023-03-14T07:41:06;9.20;99.90
44855;DHT22;30591;48.228;16.398;2023-03-14T07:43:37;9.30;99.90
44855;DHT22;30591;48.228;16.398;2023-03-14T07:46:04;9.20;99.90
44855;DHT22;30591;48.228;16.398;2023-03-14T07:48:32;9.20;99.90
44855;DHT22;30591;48.228;16.398;2023-03-14T07:50:59;9.30;99.90
44855;DHT22;30591;48.228;16.398;2023-03-14T07:53:26;9.20;99.90
44855;DHT22;30591;48.228;16.398;2023-03-14T07:55:54;9.30;99.90
44855;DHT22;30591;48.228;16.398;2023-03-14T07:58:22;9.30;99.90
44855;DHT22;30591;48.228;16.398;2023-03-14T08:00:51;9.30;99.90
44855;DHT22;30591;48.228;16.398;2023-03-14T08:03:19;9.30;99.90
44855;DHT22;30591;48.228;16.398;2023-03-14T08:05:48;9.30;99.90
44855;DHT22;30591;48.228;16.398;2023-03-14T08:08:17;9.40;99.90
44855;DHT22;30591;48.228;16.398;2023-03-14T08:10:45;9.40;99.90
44855;DHT22;30591;48.228;16.398;2023-03-14T08:13:13;9.50;99.90
44855;DHT22;30591;48.228;16.398;2023-03-14T08:15:41;9.60;99.90
44855;DHT22;30591;48.228;16.398;2023-03-14T08:18:08;9.60;99.90
44855;DHT22;30591;48.228;16.398;2023-03-14T08:20:36;9.60;99.90
44855;DHT22;30591;48.228;16.398;2023-03-14T08:23:04;9.70;99.90
44855;DHT22;30591;48.228;16.398;2023-03-14T08:25:32;9.70;99.90
44855;DHT22;30591;48.228;16.398;2023-03-14T08:27:59;9.80;99.90
44855;DHT22;30591;48.228;16.398;2023-03-14T08:30:26;9.90;99.90
44855;DHT22;30591;48.228;16.398;2023-03-14T08:32:53;9.90;99.90
44855;DHT22;30591;48.228;16.398;2023-03-14T08:35:23;10.10;99.90
44855;DHT22;30591;48.228;16.398;2023-03-14T08:37:51;10.00;99.90
44855;DHT22;30591;48.228;16.398;2023-03-14T08:40:19;10.10;99.90
44855;DHT22;30591;48.228;16.398;2023-03-14T08:42:46;10.10;99.90
44855;DHT22;30591;48.228;16.398;2023-03-14T08:45:14;10.20;99.90
44855;DHT22;30591;48.228;16.398;2023-03-14T08:47:44;10.30;99.90
44855;DHT22;30591;48.228;16.398;2023-03-14T08:50:12;10.50;99.90
44855;DHT22;30591;48.228;16.398;2023-03-14T08:52:42;10.50;99.90
44855;DHT22;30591;48.228;16.398;2023-03-14T08:55:10;10.50;99.90
44855;DHT22;30591;48.228;16.398;2023-03-14T08:57:38;10.50;99.90
44855;DHT22;30591;48.228;16.398;2023-03-14T09:00:07;10.50;99.90
44855;DHT22;30591;48.228;16.398;2023-03-14T09:02:38;10.30;99.90
44855;DHT22;30591;48.228;16.398;2023-03-14T09:05:06;10.20;99.90
44855;DHT22;30591;48.228;16.398;2023-03-14T09:07:33;10.20;99.90
44855;DHT22;30591;48.228;16.398;2023-03-14T09:10:01;10.10;99.90
44855;DHT22;30591;48.228;16.398;2023-03-14T09:12:28;10.00;99.90
44855;DHT22;30591;48.228;16.398;2023-03-14T09:14:55;10.10;99.90
44855;DHT22;30591;48.228;16.398;2023-03-14T09:17:23;10.10;99.90
44855;DHT22;30591;48.228;16.398;2023-03-14T09:19:50;10.00;99.90
44855;DHT22;30591;48.228;16.398;2023-03-14T09:22:17;10.00;99.90
44855;DHT22;30591;48.228;16.398;2023-03-14T09:24:45;10.20;99.90
44855;DHT22;30591;48.228;16.398;2023-03-14T09:27:12;10.30;99.90
44855;DHT22;30591;48.228;16.398;2023-03-14T09:29:40;10.30;99.90
44855;DHT22;30591;48.228;16.398;2023-03-14T09:32:07;10.20;99.90
44855;DHT22;30591;48.228;16.398;2023-03-14T09:34:35;10.20;99.90
44855;DHT22;30591;48.228;16.398;2023-03-14T09:37:03;10.40;99.90
44855;DHT22;30591;48.228;16.398;2023-03-14T09:39:30;10.20;99.90
44855;DHT22;30591;48.228;16.398;2023-03-14T09:41:59;10.20;99.90
44855;DHT22;30591;48.228;16.398;2023-03-14T09:44:32;10.20;99.90
44855;DHT22;30591;48.228;16.398;2023-03-14T09:47:10;10.20;99.90
44855;DHT22;30591;48.228;16.398;2023-03-14T09:49:41;10.10;99.90
44855;DHT22;30591;48.228;16.398;2023-03-14T09:52:19;10.10;99.90
44855;DHT22;30591;48.228;16.398;2023-03-14T09:55:32;10.20;99.90
44855;DHT22;30591;48.228;16.398;2023-03-14T09:57:57;10.30;99.90
44855;DHT22;30591;48.228;16.398;2023-03-14T10:00:29;10.30;99.90
44855;DHT22;30591;48.228;16.398;2023-03-14T10:03:33;10.20;99.90
44855;DHT22;30591;48.228;16.398;2023-03-14T10:06:01;10.20;99.90
44855;DHT22;30591;48.228;16.398;2023-03-14T10:08:29;10.30;99.90
44855;DHT22;30591;48.228;16.398;2023-03-14T10:10:56;10.30;99.90
44855;DHT22;30591;48.228;16.398;2023-03-14T10:13:26;10.20;99.90
44855;DHT22;30591;48.228;16.398;2023-03-14T10:16:00;10.30;99.90
44855;DHT22;30591;48.228;16.398;2023-03-14T10:18:30;10.20;99.90
44855;DHT22;30591;48.228;16.398;2023-03-14T10:21:21;10.20;99.90
44855;DHT22;30591;48.228;16.398;2023-03-14T10:23:53;10.30;99.90
44855;DHT22;30591;48.228;16.398;2023-03-14T10:26:26;10.30;99.90
44855;DHT22;30591;48.228;16.398;2023-03-14T10:29:02;10.40;99.90
44855;DHT22;30591;48.228;16.398;2023-03-14T10:31:57;10.40;99.90
44855;DHT22;30591;48.228;16.398;2023-03-14T10:34:29;10.30;99.90
44855;DHT22;30591;48.228;16.398;2023-03-14T10:37:05;10.30;99.90
44855;DHT22;30591;48.228;16.398;2023-03-14T10:39:46;10.20;99.90
44855;DHT22;30591;48.228;16.398;2023-03-14T10:42:25;10.20;99.90
44855;DHT22;30591;48.228;16.398;2023-03-14T10:45:00;10.10;99.90
44855;DHT22;30591;48.228;16.398;2023-03-14T10:47:28;10.20;99.90
44855;DHT22;30591;48.228;16.398;2023-03-14T10:49:57;10.20;99.90
44855;DHT22;30591;48.228;16.398;2023-03-14T10:52:48;10.60;99.90
44855;DHT22;30591;48.228;16.398;2023-03-14T10:55:42;11.10;99.90
44855;DHT22;30591;48.228;16.398;2023-03-14T10:58:26;11.30;99.90
44855;DHT22;30591;48.228;16.398;2023-03-14T11:03:32;11.30;99.90
44855;DHT22;30591;48.228;16.398;2023-03-14T11:09:10;11.20;99.90
44855;DHT22;30591;48.228;16.398;2023-03-14T11:11:30;11.20;99.90
44855;DHT22;30591;48.228;16.398;2023-03-14T11:17:15;11.20;99.90
44855;DHT22;30591;48.228;16.398;2023-03-14T11:19:49;11.20;99.90
44855;DHT22;30591;48.228;16.398;2023-03-14T11:27:30;11.10;99.90
44855;DHT22;30591;48.228;16.398;2023-03-14T11:33:16;11.00;99.90
44855;DHT22;30591;48.228;16.398;2023-03-14T11:36:20;11.10;99.90
44855;DHT22;30591;48.228;16.398;2023-03-14T11:38:58;11.00;99.90
44855;DHT22;30591;48.228;16.398;2023-03-14T11:43:58;10.90;99.90
44855;DHT22;30591;48.228;16.398;2023-03-14T11:46:34;10.90;99.90
44855;DHT22;30591;48.228;16.398;2023-03-14T11:51:54;10.80;99.90
44855;DHT22;30591;48.228;16.398;2023-03-14T11:57:01;10.80;99.90
44855;DHT22;30591;48.228;16.398;2023-03-14T11:59:38;10.70;99.90
44855;DHT22;30591;48.228;16.398;2023-03-14T12:08:25;10.60;99.90
44855;DHT22;30591;48.228;16.398;2023-03-14T12:14:01;10.50;99.90
44855;DHT22;30591;48.228;16.398;2023-03-14T12:16:36;10.60;99.90
44855;DHT22;30591;48.228;16.398;2023-03-14T12:24:29;10.40;99.90
44855;DHT22;30591;48.228;16.398;2023-03-14T12:27:04;10.30;99.90
44855;DHT22;30591;48.228;16.398;2023-03-14T12:29:32;10.30;99.90
44855;DHT22;30591;48.228;16.398;2023-03-14T12:32:22;10.20;99.90
44855;DHT22;30591;48.228;16.398;2023-03-14T12:34:50;10.10;99.90
44855;DHT22;30591;48.228;16.398;2023-03-14T12:37:28;10.00;99.90
44855;DHT22;30591;48.228;16.398;2023-03-14T12:45:29;9.80;99.90
44855;DHT22;30591;48.228;16.398;2023-03-14T12:50:47;9.70;99.90
44855;DHT22;30591;48.228;16.398;2023-03-14T12:56:45;9.70;99.90
44855;DHT22;30591;48.228;16.398;2023-03-14T13:04:43;9.70;99.90
44855;DHT22;30591;48.228;16.398;2023-03-14T13:08:01;9.70;99.90
44855;DHT22;30591;48.228;16.398;2023-03-14T13:10:30;9.70;99.90
44855;DHT22;30591;48.228;16.398;2023-03-14T13:13:24;9.60;99.90
44855;DHT22;30591;48.228;16.398;2023-03-14T13:15:56;9.60;99.90
44855;DHT22;30591;48.228;16.398;2023-03-14T13:18:36;9.70;99.90
44855;DHT22;30591;48.228;16.398;2023-03-14T13:21:19;9.70;99.90
44855;DHT22;30591;48.228;16.398;2023-03-14T13:24:05;9.60;99.90
44855;DHT22;30591;48.228;16.398;2023-03-14T13:26:41;9.60;99.90
44855;DHT22;30591;48.228;16.398;2023-03-14T13:29:32;9.60;99.90
44855;DHT22;30591;48.228;16.398;2023-03-14T13:32:02;9.60;99.90
44855;DHT22;30591;48.228;16.398;2023-03-14T13:34:40;9.70;99.90
44855;DHT22;30591;48.228;16.398;2023-03-14T13:37:20;9.70;99.90
44855;DHT22;30591;48.228;16.398;2023-03-14T13:39:50;9.70;99.90
44855;DHT22;30591;48.228;16.398;2023-03-14T13:42:18;9.70;99.90
44855;DHT22;30591;48.228;16.398;2023-03-14T13:44:46;9.70;99.90
44855;DHT22;30591;48.228;16.398;2023-03-14T13:47:16;9.70;99.90
44855;DHT22;30591;48.228;16.398;2023-03-14T13:49:45;9.80;99.90
44855;DHT22;30591;48.228;16.398;2023-03-14T13:52:24;9.70;99.90
44855;DHT22;30591;48.228;16.398;2023-03-14T13:54:56;9.80;99.90
44855;DHT22;30591;48.228;16.398;2023-03-14T13:57:23;9.80;99.90
44855;DHT22;30591;48.228;16.398;2023-03-14T14:00:16;9.80;99.90
44855;DHT22;30591;48.228;16.398;2023-03-14T14:02:44;9.80;99.90
44855;DHT22;30591;48.228;16.398;2023-03-14T14:05:11;9.70;99.90
44855;DHT22;30591;48.228;16.398;2023-03-14T14:07:42;9.70;99.90
44855;DHT22;30591;48.228;16.398;2023-03-14T14:10:12;9.70;99.90
44855;DHT22;30591;48.228;16.398;2023-03-14T14:12:55;9.70;99.90
44855;DHT22;30591;48.228;16.398;2023-03-14T14:15:39;9.70;99.90
44855;DHT22;30591;48.228;16.398;2023-03-14T14:18:15;9.80;99.90
44855;DHT22;30591;48.228;16.398;2023-03-14T14:20:45;9.70;99.90
44855;DHT22;30591;48.228;16.398;2023-03-14T14:23:21;9.80;99.90
44855;DHT22;30591;48.228;16.398;2023-03-14T14:25:53;9.80;99.90
44855;DHT22;30591;48.228;16.398;2023-03-14T14:28:25;9.70;99.90
44855;DHT22;30591;48.228;16.398;2023-03-14T14:33:45;9.70;99.90
44855;DHT22;30591;48.228;16.398;2023-03-14T14:36:40;9.70;99.90
44855;DHT22;30591;48.228;16.398;2023-03-14T14:39:22;9.70;99.90
44855;DHT22;30591;48.228;16.398;2023-03-14T14:41:52;9.70;99.90
44855;DHT22;30591;48.228;16.398;2023-03-14T14:44:38;9.70;99.90
44855;DHT22;30591;48.228;16.398;2023-03-14T14:47:05;9.60;99.90
44855;DHT22;30591;48.228;16.398;2023-03-14T14:49:33;9.60;99.90
44855;DHT22;30591;48.228;16.398;2023-03-14T14:54:42;9.70;99.90
44855;DHT22;30591;48.228;16.398;2023-03-14T14:57:18;9.70;99.90
44855;DHT22;30591;48.228;16.398;2023-03-14T14:59:49;9.70;99.90
44855;DHT22;30591;48.228;16.398;2023-03-14T15:02:39;9.70;99.90
44855;DHT22;30591;48.228;16.398;2023-03-14T15:05:16;9.70;99.90
44855;DHT22;30591;48.228;16.398;2023-03-14T15:07:44;9.70;99.90
44855;DHT22;30591;48.228;16.398;2023-03-14T15:10:14;9.70;99.90
44855;DHT22;30591;48.228;16.398;2023-03-14T15:12:42;9.60;99.90
44855;DHT22;30591;48.228;16.398;2023-03-14T15:15:11;9.60;99.90
44855;DHT22;30591;48.228;16.398;2023-03-14T15:17:39;9.50;99.90
44855;DHT22;30591;48.228;16.398;2023-03-14T15:20:11;9.40;99.90
44855;DHT22;30591;48.228;16.398;2023-03-14T15:22:41;9.40;99.90
44855;DHT22;30591;48.228;16.398;2023-03-14T15:25:09;9.40;99.90
44855;DHT22;30591;48.228;16.398;2023-03-14T15:27:57;9.40;99.90
44855;DHT22;30591;48.228;16.398;2023-03-14T15:30:24;9.30;99.90
44855;DHT22;30591;48.228;16.398;2023-03-14T15:32:51;9.30;99.90
44855;DHT22;30591;48.228;16.398;2023-03-14T15:35:19;9.20;99.90
44855;DHT22;30591;48.228;16.398;2023-03-14T15:37:46;9.30;99.90
44855;DHT22;30591;48.228;16.398;2023-03-14T15:40:15;9.30;99.90
44855;DHT22;30591;48.228;16.398;2023-03-14T15:42:43;9.20;99.90
44855;DHT22;30591;48.228;16.398;2023-03-14T15:45:10;9.10;99.90
44855;DHT22;30591;48.228;16.398;2023-03-14T15:47:38;9.10;99.90
44855;DHT22;30591;48.228;16.398;2023-03-14T15:50:08;9.10;99.90
44855;DHT22;30591;48.228;16.398;2023-03-14T15:52:39;9.10;99.90
44855;DHT22;30591;48.228;16.398;2023-03-14T15:55:07;9.10;99.90
44855;DHT22;30591;48.228;16.398;2023-03-14T15:57:34;9.00;99.90
44855;DHT22;30591;48.228;16.398;2023-03-14T16:00:02;9.00;99.90
44855;DHT22;30591;48.228;16.398;2023-03-14T16:02:32;9.00;99.90
44855;DHT22;30591;48.228;16.398;2023-03-14T16:04:59;9.00;99.90
44855;DHT22;30591;48.228;16.398;2023-03-14T16:07:27;9.00;99.90
44855;DHT22;30591;48.228;16.398;2023-03-14T16:09:54;8.90;99.90
44855;DHT22;30591;48.228;16.398;2023-03-14T16:12:21;8.90;99.90
44855;DHT22;30591;48.228;16.398;2023-03-14T16:14:49;8.90;99.90
44855;DHT22;30591;48.228;16.398;2023-03-14T16:17:17;8.80;99.90
44855;DHT22;30591;48.228;16.398;2023-03-14T16:19:44;8.80;99.90
44855;DHT22;30591;48.228;16.398;2023-03-14T16:22:11;8.80;99.90
44855;DHT22;30591;48.228;16.398;2023-03-14T16:24:39;8.80;99.90
44855;DHT22;30591;48.228;16.398;2023-03-14T16:27:06;8.70;99.90
44855;DHT22;30591;48.228;16.398;2023-03-14T16:29:34;8.70;99.90
44855;DHT22;30591;48.228;16.398;2023-03-14T16:32:02;8.70;99.90
44855;DHT22;30591;48.228;16.398;2023-03-14T16:34:29;8.70;99.90
44855;DHT22;30591;48.228;16.398;2023-03-14T16:36:58;8.60;99.90
44855;DHT22;30591;48.228;16.398;2023-03-14T16:39:25;8.60;99.90
44855;DHT22;30591;48.228;16.398;2023-03-14T16:41:58;8.50;99.90
44855;DHT22;30591;48.228;16.398;2023-03-14T16:44:25;8.50;99.90
44855;DHT22;30591;48.228;16.398;2023-03-14T16:46:53;8.60;99.90
44855;DHT22;30591;48.228;16.398;2023-03-14T16:49:20;8.50;99.90
44855;DHT22;30591;48.228;16.398;2023-03-14T16:51:48;8.60;99.90
44855;DHT22;30591;48.228;16.398;2023-03-14T16:54:15;8.60;99.90
44855;DHT22;30591;48.228;16.398;2023-03-14T16:56:42;8.50;99.90
44855;DHT22;30591;48.228;16.398;2023-03-14T16:59:11;8.50;99.90
44855;DHT22;30591;48.228;16.398;2023-03-14T17:01:39;8.50;99.90
44855;DHT22;30591;48.228;16.398;2023-03-14T17:04:09;8.50;99.90
44855;DHT22;30591;48.228;16.398;2023-03-14T17:06:38;8.40;99.90
44855;DHT22;30591;48.228;16.398;2023-03-14T17:09:05;8.40;99.90
44855;DHT22;30591;48.228;16.398;2023-03-14T17:11:33;8.40;99.90
44855;DHT22;30591;48.228;16.398;2023-03-14T17:14:01;8.40;99.90
44855;DHT22;30591;48.228;16.398;2023-03-14T17:16:29;8.30;99.90
44855;DHT22;30591;48.228;16.398;2023-03-14T17:18:57;8.30;99.90